createdAt,value
2018-04-06T00:00:47.040Z,68.96
2018-04-06T00:04:10.345Z,68.55
2018-04-06T00:07:33.724Z,69.32
2018-04-06T00:10:57.116Z,68.47
2018-04-06T00:14:20.412Z,68.30
2018-04-06T00:17:43.757Z,68.13
2018-04-06T00:21:06.975Z,67.62
2018-04-06T00:24:30.258Z,67.67
2018-04-06T00:27:53.543Z,67.85
2018-04-06T00:31:16.836Z,68.28
2018-04-06T00:34:40.118Z,67.23
2018-04-06T00:38:03.475Z,67.20
2018-04-06T00:41:26.757Z,67.19
2018-04-06T00:44:50.041Z,64.87
2018-04-06T00:48:13.323Z,65.49
2018-04-06T00:51:36.856Z,63.43
2018-04-06T00:55:00.299Z,61.55
2018-04-06T00:58:24.340Z,62.49
2018-04-06T01:01:47.666Z,62.60
2018-04-06T01:05:11.748Z,59.73
2018-04-06T01:08:35.772Z,58.45
2018-04-06T01:11:59.872Z,56.79
2018-04-06T01:15:23.150Z,57.59
2018-04-06T01:18:46.438Z,58.16
2018-04-06T01:22:10.824Z,57.73
2018-04-06T01:25:34.106Z,58.17
2018-04-06T01:28:58.396Z,57.67
2018-04-06T01:32:21.890Z,57.96
2018-04-06T01:35:45.989Z,58.50
2018-04-06T01:39:09.266Z,58.32
2018-04-06T01:42:32.552Z,58.87
2018-04-06T01:45:55.846Z,59.94
2018-04-06T01:49:19.208Z,57.32
2018-04-06T01:52:42.465Z,60.09
2018-04-06T01:56:06.568Z,59.97
2018-04-06T01:59:29.920Z,59.95
2018-04-06T02:02:53.209Z,61.33
2018-04-06T02:06:16.480Z,61.36
2018-04-06T02:09:39.814Z,61.78
2018-04-06T02:13:03.115Z,63.08
2018-04-06T02:16:27.234Z,64.10
2018-04-06T02:19:50.480Z,62.79
2018-04-06T02:23:14.576Z,63.28
2018-04-06T02:26:37.866Z,63.29
2018-04-06T02:30:01.150Z,63.55
2018-04-06T02:33:24.444Z,63.19
2018-04-06T02:36:47.737Z,64.23
2018-04-06T02:40:11.085Z,64.61
2018-04-06T02:43:34.383Z,65.29
2018-04-06T02:46:57.646Z,65.90
2018-04-06T02:50:20.966Z,65.67
2018-04-06T02:53:44.285Z,65.54
2018-04-06T02:57:07.656Z,65.56
2018-04-06T03:00:30.938Z,65.07
2018-04-06T03:03:54.194Z,65.94
2018-04-06T03:07:18.287Z,65.89
2018-04-06T03:10:41.571Z,66.17
2018-04-06T03:14:04.864Z,66.35
2018-04-06T03:17:28.245Z,66.61
2018-04-06T03:20:51.578Z,66.66
2018-04-06T03:24:14.877Z,67.03
2018-04-06T03:27:38.141Z,67.26
2018-04-06T03:31:01.430Z,67.66
2018-04-06T03:34:24.713Z,68.27
2018-04-06T03:37:48.003Z,68.43
2018-04-06T03:41:11.407Z,67.76
2018-04-06T03:44:35.430Z,67.39
2018-04-06T03:47:58.727Z,67.61
2018-04-06T03:51:22.007Z,67.05
2018-04-06T03:54:45.289Z,67.97
2018-04-06T03:58:08.598Z,68.48
2018-04-06T04:01:31.965Z,67.87
2018-04-06T04:04:55.319Z,67.13
2018-04-06T04:08:18.638Z,66.60
2018-04-06T04:11:41.931Z,67.41
2018-04-06T04:15:05.201Z,67.69
2018-04-06T04:18:29.353Z,68.25
2018-04-06T04:21:52.586Z,68.36
2018-04-06T04:25:15.961Z,67.16
2018-04-06T04:28:39.224Z,67.98
2018-04-06T04:32:02.555Z,67.98
2018-04-06T04:35:26.538Z,68.79
2018-04-06T04:38:49.919Z,68.75
2018-04-06T04:42:13.218Z,68.95
2018-04-06T04:45:37.358Z,69.16
2018-04-06T04:49:01.432Z,69.55
2018-04-06T04:52:24.806Z,69.04
2018-04-06T04:55:48.116Z,69.28
2018-04-06T04:59:11.427Z,69.01
2018-04-06T05:02:34.775Z,68.04
2018-04-06T05:05:58.050Z,67.73
2018-04-06T05:09:22.338Z,68.11
2018-04-06T05:12:45.678Z,68.22
2018-04-06T05:16:09.783Z,70.08
2018-04-06T05:19:33.900Z,69.18
2018-04-06T05:22:57.220Z,69.55
2018-04-06T05:26:20.532Z,67.67
2018-04-06T05:29:44.244Z,67.74
2018-04-06T05:33:07.629Z,68.07
2018-04-06T05:36:30.969Z,68.54
2018-04-06T05:39:54.348Z,68.30
2018-04-06T05:43:18.393Z,67.65
2018-04-06T05:46:41.705Z,66.43
2018-04-06T05:50:05.222Z,65.84
2018-04-06T05:53:30.082Z,66.87
2018-04-06T05:56:53.458Z,66.94
2018-04-06T06:00:16.897Z,66.24
2018-04-06T06:03:40.963Z,65.89
2018-04-06T06:07:04.315Z,64.83
2018-04-06T06:10:27.728Z,64.32
2018-04-06T06:13:51.318Z,63.13
2018-04-06T06:17:14.571Z,64.61
2018-04-06T06:20:37.937Z,63.78
2018-04-06T06:24:01.458Z,63.46
2018-04-06T06:27:24.976Z,62.66
2018-04-06T06:30:48.252Z,62.20
2018-04-06T06:34:11.594Z,61.55
2018-04-06T06:37:34.870Z,62.10
2018-04-06T06:40:58.148Z,61.29
2018-04-06T06:44:21.518Z,61.83
2018-04-06T06:47:44.789Z,61.58
2018-04-06T06:51:08.083Z,61.49
2018-04-06T06:54:31.387Z,61.12
2018-04-06T06:57:54.650Z,60.79
2018-04-06T07:01:17.924Z,60.58
2018-04-06T07:04:41.200Z,60.62
2018-04-06T07:08:04.480Z,60.47
2018-04-06T07:11:27.771Z,61.29
2018-04-06T07:14:51.832Z,60.62
2018-04-06T07:18:15.858Z,60.68
2018-04-06T07:21:39.902Z,60.07
2018-04-06T07:25:03.162Z,59.65
2018-04-06T07:28:26.484Z,60.27
2018-04-06T07:31:49.763Z,59.38
2018-04-06T07:35:13.047Z,58.75
2018-04-06T07:38:36.302Z,59.32
2018-04-06T07:41:59.567Z,58.70
2018-04-06T07:45:23.759Z,58.46
2018-04-06T07:48:47.116Z,58.34
2018-04-06T07:52:10.380Z,58.93
2018-04-06T07:55:34.364Z,58.63
2018-04-06T07:58:57.679Z,58.58
2018-04-06T08:02:21.193Z,57.74
2018-04-06T08:05:44.520Z,58.05
2018-04-06T08:09:08.603Z,57.67
2018-04-06T08:12:32.161Z,58.07
2018-04-06T08:15:56.243Z,57.56
2018-04-06T08:19:19.539Z,57.71
2018-04-06T08:22:42.848Z,57.84
2018-04-06T08:26:06.929Z,58.56
2018-04-06T08:29:30.286Z,58.30
2018-04-06T08:32:54.337Z,57.46
2018-04-06T08:36:17.923Z,57.68
2018-04-06T08:39:41.227Z,57.21
2018-04-06T08:43:05.674Z,56.39
2018-04-06T08:46:29.938Z,56.11
2018-04-06T08:49:55.754Z,56.04
2018-04-06T08:53:19.160Z,55.68
2018-04-06T08:56:42.518Z,55.30
2018-04-06T09:00:06.544Z,54.83
2018-04-06T09:03:29.876Z,55.15
2018-04-06T09:06:54.017Z,54.42
2018-04-06T09:10:18.303Z,52.84
2018-04-06T09:13:41.568Z,53.30
2018-04-06T09:17:05.723Z,52.90
2018-04-06T09:20:29.095Z,52.80
2018-04-06T09:23:52.356Z,52.11
2018-04-06T09:27:15.693Z,50.40
2018-04-06T09:30:45.156Z,50.83
2018-04-06T09:34:08.614Z,50.56
2018-04-06T09:37:32.110Z,50.74
2018-04-06T09:40:57.449Z,50.69
2018-04-06T09:44:20.724Z,49.45
2018-04-06T09:47:44.026Z,48.77
2018-04-06T09:51:07.306Z,48.52
2018-04-06T09:54:30.603Z,47.15
2018-04-06T09:57:53.918Z,47.46
2018-04-06T10:01:18.106Z,47.97
2018-04-06T10:04:41.426Z,47.22
2018-04-06T10:08:05.492Z,46.14
2018-04-06T10:11:28.772Z,46.47
2018-04-06T10:14:52.120Z,45.41
2018-04-06T10:18:15.502Z,45.42
2018-04-06T10:21:38.786Z,45.70
2018-04-06T10:25:02.834Z,45.74
2018-04-06T10:28:26.118Z,45.58
2018-04-06T10:31:49.450Z,45.17
2018-04-06T10:35:12.758Z,45.32
2018-04-06T10:38:36.133Z,43.61
2018-04-06T10:41:59.411Z,43.68
2018-04-06T10:45:22.836Z,44.98
2018-04-06T10:48:57.814Z,43.42
2018-04-06T10:52:32.648Z,42.74
2018-04-06T10:55:56.682Z,42.30
2018-04-06T10:59:19.987Z,41.26
2018-04-06T11:02:42.841Z,40.60
2018-04-06T11:06:05.810Z,39.65
2018-04-06T11:09:28.808Z,39.98
2018-04-06T11:12:51.690Z,38.83
2018-04-06T11:16:15.297Z,39.34
2018-04-06T11:19:38.337Z,38.20
2018-04-06T11:23:02.091Z,38.66
2018-04-06T11:26:24.915Z,38.12
2018-04-06T11:29:47.784Z,37.21
2018-04-06T11:33:10.848Z,37.43
2018-04-06T11:36:33.716Z,37.23
2018-04-06T11:39:56.628Z,36.64
2018-04-06T11:43:19.483Z,36.56
2018-04-06T11:46:42.459Z,36.48
2018-04-06T11:50:05.358Z,35.75
2018-04-06T11:53:28.174Z,35.48
2018-04-06T11:56:51.017Z,35.88
2018-04-06T12:00:13.848Z,35.21
2018-04-06T12:03:36.699Z,34.21
2018-04-06T12:06:59.530Z,33.49
2018-04-06T12:10:22.370Z,34.05
2018-04-06T12:13:46.013Z,32.43
2018-04-06T12:17:09.620Z,31.29
2018-04-06T12:20:32.588Z,32.61
2018-04-06T12:23:56.254Z,32.59
2018-04-06T12:27:19.090Z,32.08
2018-04-06T12:30:41.954Z,32.02
2018-04-06T12:34:04.797Z,32.55
2018-04-06T12:37:27.630Z,33.34
2018-04-06T12:40:50.477Z,33.59
2018-04-06T12:44:13.312Z,33.89
2018-04-06T12:47:36.916Z,33.55
2018-04-06T12:50:59.778Z,33.51
2018-04-06T12:54:22.603Z,32.64
2018-04-06T12:57:45.426Z,32.41
2018-04-06T13:01:09.474Z,32.58
2018-04-06T13:04:32.297Z,31.99
2018-04-06T13:07:55.918Z,32.97
2018-04-06T13:11:18.820Z,32.86
2018-04-06T13:14:41.659Z,32.55
2018-04-06T13:18:04.500Z,33.19
2018-04-06T13:21:28.124Z,32.67
2018-04-06T13:24:51.834Z,33.16
2018-04-06T13:28:14.941Z,33.44
2018-04-06T13:31:37.762Z,33.46
2018-04-06T13:35:01.411Z,32.40
2018-04-06T13:38:25.024Z,32.45
2018-04-06T13:41:47.946Z,32.11
2018-04-06T13:45:10.765Z,31.50
2018-04-06T13:48:34.366Z,31.58
2018-04-06T13:51:57.291Z,32.28
2018-04-06T13:55:20.147Z,32.32
2018-04-06T13:58:42.997Z,31.49
2018-04-06T14:02:05.839Z,32.67
2018-04-06T14:05:28.650Z,33.26
2018-04-06T14:08:52.272Z,32.57
2018-04-06T14:12:15.107Z,32.91
2018-04-06T14:15:38.094Z,32.70
2018-04-06T14:19:00.948Z,32.87
2018-04-06T14:22:23.823Z,33.18
2018-04-06T14:25:46.639Z,32.75
2018-04-06T14:29:09.516Z,32.90
2018-04-06T14:32:32.344Z,32.96
2018-04-06T14:35:55.335Z,32.56
2018-04-06T14:39:18.199Z,32.08
2018-04-06T14:42:41.066Z,31.97
2018-04-06T14:46:05.302Z,32.02
2018-04-06T14:49:28.900Z,31.80
2018-04-06T14:52:51.739Z,32.05
2018-04-06T14:56:14.564Z,31.57
2018-04-06T14:59:38.178Z,31.13
2018-04-06T15:03:01.021Z,31.21
2018-04-06T15:06:23.893Z,31.11
2018-04-06T15:09:46.703Z,30.75
2018-04-06T15:13:09.715Z,30.60
2018-04-06T15:16:32.554Z,30.70
2018-04-06T15:19:55.552Z,31.31
2018-04-06T15:23:18.387Z,31.18
2018-04-06T15:26:41.223Z,30.73
2018-04-06T15:30:04.809Z,30.67
2018-04-06T15:33:27.657Z,31.17
2018-04-06T15:36:50.536Z,30.47
2018-04-06T15:40:13.383Z,30.16
2018-04-06T15:43:36.207Z,30.30
2018-04-06T15:46:59.139Z,30.56
2018-04-06T15:50:21.976Z,31.37
2018-04-06T15:53:44.836Z,30.03
2018-04-06T15:57:07.678Z,29.97
2018-04-06T16:00:30.514Z,30.58
2018-04-06T16:03:53.384Z,30.34
2018-04-06T16:07:16.220Z,31.10
2018-04-06T16:10:39.082Z,31.58
2018-04-06T16:14:01.933Z,31.35
2018-04-06T16:17:24.805Z,31.32
2018-04-06T16:20:48.520Z,30.89
2018-04-06T16:24:11.426Z,31.12
2018-04-06T16:27:34.332Z,31.23
2018-04-06T16:30:57.196Z,31.10
2018-04-06T16:34:20.053Z,31.24
2018-04-06T16:37:42.959Z,31.18
2018-04-06T16:41:05.941Z,31.50
2018-04-06T16:44:28.813Z,31.97
2018-04-06T16:47:52.656Z,32.43
2018-04-06T16:51:15.520Z,32.47
2018-04-06T16:54:38.357Z,32.49
2018-04-06T16:58:01.223Z,32.74
2018-04-06T17:01:24.156Z,32.70
2018-04-06T17:04:47.902Z,34.36
2018-04-06T17:08:10.782Z,35.10
2018-04-06T17:14:13.797Z,35.51
2018-04-06T17:19:28.259Z,35.52
2018-04-06T17:22:51.188Z,35.75
2018-04-06T17:26:14.820Z,35.82
2018-04-06T17:29:37.751Z,36.33
2018-04-06T17:33:00.665Z,35.95
2018-04-06T17:36:23.522Z,36.08
2018-04-06T17:39:46.420Z,36.49
2018-04-06T17:43:09.265Z,37.00
2018-04-06T17:46:32.127Z,37.78
2018-04-06T17:49:54.982Z,37.61
2018-04-06T17:53:19.168Z,37.29
2018-04-06T17:56:42.483Z,37.37
2018-04-06T18:00:08.309Z,37.75
2018-04-06T18:03:31.638Z,37.82
2018-04-06T18:06:54.975Z,37.96
2018-04-06T18:10:19.085Z,37.98
2018-04-06T18:13:42.532Z,38.02
2018-04-06T18:17:05.866Z,37.97
2018-04-06T18:20:29.172Z,38.21
2018-04-06T18:23:52.469Z,38.17
2018-04-06T18:27:15.802Z,38.71
2018-04-06T18:30:39.731Z,38.72
2018-04-06T18:34:03.053Z,38.84
2018-04-06T18:37:26.406Z,38.72
2018-04-06T18:40:49.767Z,39.28
2018-04-06T18:44:13.155Z,40.12
2018-04-06T18:47:36.444Z,39.29
2018-04-06T18:50:59.753Z,39.49
2018-04-06T18:54:23.088Z,39.52
2018-04-06T18:57:47.305Z,40.54
2018-04-06T19:01:11.408Z,43.24
2018-04-06T19:04:34.793Z,44.48
2018-04-06T19:07:58.144Z,45.42
2018-04-06T19:11:21.594Z,44.48
2018-04-06T19:14:45.784Z,44.86
2018-04-06T19:18:10.097Z,46.00
2018-04-06T19:21:33.502Z,46.92
2018-04-06T19:25:00.110Z,47.50
2018-04-06T19:28:25.333Z,46.18
2018-04-06T19:31:48.661Z,46.22
2018-04-06T19:35:12.778Z,46.19
2018-04-06T19:38:36.164Z,46.40
2018-04-06T19:42:00.568Z,47.04
2018-04-06T19:45:25.055Z,47.07
2018-04-06T19:48:49.432Z,48.01
2018-04-06T19:52:13.473Z,48.24
2018-04-06T19:55:38.391Z,47.39
2018-04-06T19:59:02.478Z,47.34
2018-04-06T20:02:26.619Z,48.90
2018-04-06T20:05:49.955Z,47.31
2018-04-06T20:09:13.268Z,48.70
2018-04-06T20:12:36.626Z,48.78
2018-04-06T20:16:00.768Z,47.63
2018-04-06T20:19:25.727Z,46.47
2018-04-06T20:22:49.007Z,48.94
2018-04-06T20:26:12.356Z,48.25
2018-04-06T20:29:35.926Z,47.79
2018-04-06T20:32:59.280Z,46.83
2018-04-06T20:36:22.567Z,49.09
2018-04-06T20:39:45.872Z,48.86
2018-04-06T20:43:09.214Z,49.65
2018-04-06T20:46:32.637Z,50.04
2018-04-06T20:49:55.912Z,48.63
2018-04-06T20:53:19.345Z,47.19
2018-04-06T20:56:42.931Z,48.88
2018-04-06T21:00:06.369Z,47.83
2018-04-06T21:03:29.729Z,44.80
2018-04-06T21:06:53.051Z,45.18
2018-04-06T21:10:17.161Z,44.91
2018-04-06T21:13:40.514Z,44.30
2018-04-06T21:17:03.926Z,44.09
2018-04-06T21:20:27.240Z,43.84
2018-04-06T21:23:50.638Z,44.47
2018-04-06T21:27:13.956Z,44.67
2018-04-06T21:30:37.280Z,46.02
2018-04-06T21:34:00.623Z,46.58
2018-04-06T21:37:24.810Z,46.70
2018-04-06T21:40:48.205Z,47.58
2018-04-06T21:44:12.267Z,47.02
2018-04-06T21:47:35.635Z,47.54
2018-04-06T21:50:58.986Z,48.42
2018-04-06T21:54:22.338Z,47.75
2018-04-06T21:57:45.673Z,47.48
2018-04-06T22:01:09.126Z,48.41
2018-04-06T22:04:32.483Z,48.38
2018-04-06T22:07:56.011Z,48.43
2018-04-06T22:11:20.140Z,48.58
2018-04-06T22:14:43.561Z,49.28
2018-04-06T22:18:06.888Z,49.61
2018-04-06T22:21:30.282Z,49.63
2018-04-06T22:24:53.645Z,50.09
2018-04-06T22:28:17.018Z,50.22
2018-04-06T22:31:41.078Z,50.71
2018-04-06T22:35:04.476Z,50.52
2018-04-06T22:38:28.572Z,51.26
2018-04-06T22:41:51.870Z,51.59
2018-04-06T22:45:15.207Z,51.01
2018-04-06T22:48:38.507Z,52.81
2018-04-06T22:52:01.795Z,52.77
2018-04-06T22:55:25.068Z,54.21
2018-04-06T22:58:48.361Z,53.15
2018-04-06T23:02:11.657Z,53.27
2018-04-06T23:05:35.011Z,53.52
2018-04-06T23:08:58.355Z,53.49
2018-04-06T23:12:21.655Z,53.94
2018-04-06T23:15:44.992Z,56.03
2018-04-06T23:19:08.302Z,54.65
2018-04-06T23:22:31.634Z,55.35
2018-04-06T23:25:54.920Z,57.17
2018-04-06T23:29:18.197Z,56.68
2018-04-06T23:32:41.512Z,55.88
2018-04-06T23:36:04.848Z,57.66
2018-04-06T23:39:28.289Z,58.60
2018-04-06T23:42:51.652Z,57.59
2018-04-06T23:46:15.058Z,57.96
2018-04-06T23:49:38.346Z,57.59
2018-04-06T23:53:01.716Z,58.61
2018-04-06T23:56:25.240Z,58.87
2018-04-06T23:59:49.279Z,57.91
